Hillsboro, Wisconsin
Current Conditions -  °F | °C
As of 2:35 AM on Friday 24 Oct 2014 (Local Time) from KC35 Reporting Station
Haze Haze  
Wind Chill: 45°   Ceiling: 300
Heat Index: 47°   Visibility: 2mi
Dew Point: 47°   Wind: 5mph
Humidity: 100%   Direction: 250°WSW
Pressure: 30.04"   Gusts: NA
Location:  43.65°N, 90.34°W
Report Text: KC35 240735Z AUTO 25004KT 2SM BR OVC003 09/09 A3004 RMK AO2 T00850085
Loading
Personal Weather Stations






























Interactive Weather Map
Tropical Storm Tracking
New forecast layout! Learn more

10-Day Weather Forecast

Advertisements
Track Severe Weather on mobile